LEST/SCQ METAR and TAF weather

Enter ICAO airport designator
Station Type Date Time Source
LEST METAR 2021/05/12 05:30 UTC NOAA

LEST 120530Z 27012G24KT 190V350 9999 -RA SCT008 BKN014 11/10 Q1012 TEMPO RA


Station Type Date Time Source
LEST Decoded METAR 2021/05/12 05:30 UTC NOAA

Santiago / Labacolla, Spain (LEST) 42-54N 008-26W 367M
May 12, 2021 - 01:30 AM EDT / 2021.05.12 0530 UTC
Wind: from the W (270 degrees) at 14 MPH (12 KT) gusting to 28 MPH (24 KT) (direction variable):0
Visibility: greater than 7 mile(s):0
Sky conditions: mostly cloudy
Weather: light rain
Temperature: 51 F (11 C)
Dew Point: 50 F (10 C)
Relative Humidity: 93%
Pressure (altimeter): 29.88 in. Hg (1012 hPa)
ob: LEST 120530Z 27012G24KT 190V350 9999 -RA SCT008 BKN014 11/10 Q1012 TEMPO RA
cycle: 5

Station Type Date Time Source
LEST TAF 2021/05/12 06:27 UTC NOAA

TAF LEST 120500Z 1206/1306 25009KT 9999 FEW010 BKN020 TX13/1213Z TN09/1221Z PROB40
TEMPO 1206/1207 27017G29KT PROB40
TEMPO 1206/1211 3000 RA BKN005 BKN010
TEMPO 1220/1306 3000 -RA BR BKN010 PROB40
TEMPO 1221/1306 1500 RA BCFG BKN005
TEMPO 1303/1306 21015G25KT

Example: see airport list